sensor_id;sensor_type;location;lat;lon;timestamp;P1;durP1;ratioP1;P2;durP2;ratioP2
55312;SDS011;46892;45.668;11.756;2022-11-24T00:00:25;6.17;;;3.83;;
55312;SDS011;46892;45.668;11.756;2022-11-24T00:02:51;5.90;;;3.73;;
55312;SDS011;46892;45.668;11.756;2022-11-24T00:05:17;7.47;;;4.40;;
55312;SDS011;46892;45.668;11.756;2022-11-24T00:07:42;6.80;;;4.07;;
55312;SDS011;46892;45.668;11.756;2022-11-24T00:10:08;7.07;;;4.00;;
55312;SDS011;46892;45.668;11.756;2022-11-24T00:12:34;8.80;;;4.30;;
55312;SDS011;46892;45.668;11.756;2022-11-24T00:15:00;6.77;;;3.50;;
55312;SDS011;46892;45.668;11.756;2022-11-24T00:17:25;7.33;;;3.80;;
55312;SDS011;46892;45.668;11.756;2022-11-24T00:19:53;6.37;;;3.60;;
55312;SDS011;46892;45.668;11.756;2022-11-24T00:22:19;6.90;;;3.87;;
55312;SDS011;46892;45.668;11.756;2022-11-24T00:24:44;5.17;;;3.30;;
55312;SDS011;46892;45.668;11.756;2022-11-24T00:27:10;6.37;;;3.40;;
55312;SDS011;46892;45.668;11.756;2022-11-24T00:29:36;6.37;;;3.80;;
55312;SDS011;46892;45.668;11.756;2022-11-24T00:32:01;7.20;;;4.20;;
55312;SDS011;46892;45.668;11.756;2022-11-24T00:34:30;6.53;;;3.87;;
55312;SDS011;46892;45.668;11.756;2022-11-24T00:36:56;7.23;;;3.70;;
55312;SDS011;46892;45.668;11.756;2022-11-24T00:39:21;6.70;;;3.60;;
55312;SDS011;46892;45.668;11.756;2022-11-24T00:41:47;7.33;;;4.17;;
55312;SDS011;46892;45.668;11.756;2022-11-24T00:44:13;8.70;;;4.10;;
55312;SDS011;46892;45.668;11.756;2022-11-24T00:46:38;6.00;;;3.80;;
55312;SDS011;46892;45.668;11.756;2022-11-24T00:49:04;6.67;;;4.03;;
55312;SDS011;46892;45.668;11.756;2022-11-24T00:51:30;6.57;;;3.97;;
55312;SDS011;46892;45.668;11.756;2022-11-24T00:53:56;7.63;;;3.90;;
55312;SDS011;46892;45.668;11.756;2022-11-24T00:56:23;8.87;;;4.27;;
55312;SDS011;46892;45.668;11.756;2022-11-24T00:58:49;7.00;;;4.23;;
55312;SDS011;46892;45.668;11.756;2022-11-24T01:01:16;8.13;;;4.33;;
55312;SDS011;46892;45.668;11.756;2022-11-24T01:03:44;9.10;;;4.70;;
55312;SDS011;46892;45.668;11.756;2022-11-24T01:06:12;8.23;;;4.50;;
55312;SDS011;46892;45.668;11.756;2022-11-24T01:08:42;6.37;;;4.13;;
55312;SDS011;46892;45.668;11.756;2022-11-24T01:13:42;7.70;;;3.90;;
55312;SDS011;46892;45.668;11.756;2022-11-24T01:16:17;7.87;;;4.60;;
55312;SDS011;46892;45.668;11.756;2022-11-24T01:18:45;10.10;;;5.37;;
55312;SDS011;46892;45.668;11.756;2022-11-24T01:21:11;10.93;;;5.27;;
55312;SDS011;46892;45.668;11.756;2022-11-24T01:23:37;8.73;;;5.17;;
55312;SDS011;46892;45.668;11.756;2022-11-24T01:26:03;10.07;;;5.20;;
55312;SDS011;46892;45.668;11.756;2022-11-24T01:28:34;9.80;;;4.33;;
55312;SDS011;46892;45.668;11.756;2022-11-24T01:31:01;7.17;;;4.60;;
55312;SDS011;46892;45.668;11.756;2022-11-24T01:33:29;8.17;;;3.97;;
55312;SDS011;46892;45.668;11.756;2022-11-24T01:35:55;9.13;;;4.33;;
55312;SDS011;46892;45.668;11.756;2022-11-24T01:38:22;7.33;;;4.50;;
55312;SDS011;46892;45.668;11.756;2022-11-24T01:40:47;9.20;;;4.63;;
55312;SDS011;46892;45.668;11.756;2022-11-24T01:43:17;9.00;;;4.40;;
55312;SDS011;46892;45.668;11.756;2022-11-24T01:45:45;10.83;;;4.50;;
55312;SDS011;46892;45.668;11.756;2022-11-24T02:00:04;6.13;;;3.77;;
55312;SDS011;46892;45.668;11.756;2022-11-24T02:02:32;5.70;;;3.60;;
55312;SDS011;46892;45.668;11.756;2022-11-24T02:04:59;5.70;;;3.27;;
55312;SDS011;46892;45.668;11.756;2022-11-24T02:07:29;5.03;;;3.20;;
55312;SDS011;46892;45.668;11.756;2022-11-24T02:09:56;5.63;;;3.30;;
55312;SDS011;46892;45.668;11.756;2022-11-24T02:12:26;6.30;;;3.70;;
55312;SDS011;46892;45.668;11.756;2022-11-24T02:14:53;6.97;;;3.50;;
55312;SDS011;46892;45.668;11.756;2022-11-24T02:17:20;6.20;;;3.00;;
55312;SDS011;46892;45.668;11.756;2022-11-24T02:22:34;7.50;;;3.80;;
55312;SDS011;46892;45.668;11.756;2022-11-24T02:25:10;8.97;;;3.40;;
55312;SDS011;46892;45.668;11.756;2022-11-24T02:27:57;6.07;;;3.07;;
55312;SDS011;46892;45.668;11.756;2022-11-24T02:30:26;4.60;;;2.97;;
55312;SDS011;46892;45.668;11.756;2022-11-24T02:32:51;9.87;;;3.50;;
55312;SDS011;46892;45.668;11.756;2022-11-24T02:35:18;7.03;;;3.50;;
55312;SDS011;46892;45.668;11.756;2022-11-24T02:37:44;5.33;;;3.27;;
55312;SDS011;46892;45.668;11.756;2022-11-24T02:40:09;5.30;;;3.10;;
55312;SDS011;46892;45.668;11.756;2022-11-24T02:42:40;4.90;;;3.00;;
55312;SDS011;46892;45.668;11.756;2022-11-24T02:45:10;5.27;;;2.90;;
55312;SDS011;46892;45.668;11.756;2022-11-24T02:47:36;4.73;;;2.70;;
55312;SDS011;46892;45.668;11.756;2022-11-24T02:50:02;6.73;;;2.53;;
55312;SDS011;46892;45.668;11.756;2022-11-24T02:52:28;8.50;;;3.00;;
55312;SDS011;46892;45.668;11.756;2022-11-24T02:54:54;10.13;;;3.53;;
55312;SDS011;46892;45.668;11.756;2022-11-24T02:57:21;5.37;;;2.80;;
55312;SDS011;46892;45.668;11.756;2022-11-24T02:59:46;6.37;;;2.60;;
55312;SDS011;46892;45.668;11.756;2022-11-24T03:02:12;4.90;;;2.60;;
55312;SDS011;46892;45.668;11.756;2022-11-24T03:04:38;5.33;;;3.00;;
55312;SDS011;46892;45.668;11.756;2022-11-24T03:07:03;5.57;;;3.23;;
55312;SDS011;46892;45.668;11.756;2022-11-24T03:09:29;3.70;;;2.50;;
55312;SDS011;46892;45.668;11.756;2022-11-24T03:11:55;5.07;;;3.00;;
55312;SDS011;46892;45.668;11.756;2022-11-24T03:14:21;5.03;;;2.60;;
55312;SDS011;46892;45.668;11.756;2022-11-24T03:16:46;7.10;;;3.50;;
55312;SDS011;46892;45.668;11.756;2022-11-24T03:19:12;5.60;;;3.00;;
55312;SDS011;46892;45.668;11.756;2022-11-24T03:21:38;5.03;;;2.87;;
55312;SDS011;46892;45.668;11.756;2022-11-24T03:24:03;4.73;;;2.73;;
55312;SDS011;46892;45.668;11.756;2022-11-24T03:26:29;5.47;;;3.27;;
55312;SDS011;46892;45.668;11.756;2022-11-24T03:28:57;3.87;;;2.40;;
55312;SDS011;46892;45.668;11.756;2022-11-24T03:31:23;4.30;;;2.70;;
55312;SDS011;46892;45.668;11.756;2022-11-24T03:33:49;4.73;;;2.73;;
55312;SDS011;46892;45.668;11.756;2022-11-24T03:36:14;5.20;;;2.80;;
55312;SDS011;46892;45.668;11.756;2022-11-24T03:38:40;4.87;;;2.73;;
55312;SDS011;46892;45.668;11.756;2022-11-24T03:41:06;6.27;;;3.20;;
55312;SDS011;46892;45.668;11.756;2022-11-24T03:43:32;6.53;;;3.17;;
55312;SDS011;46892;45.668;11.756;2022-11-24T03:45:58;5.77;;;3.13;;
55312;SDS011;46892;45.668;11.756;2022-11-24T03:48:23;5.27;;;2.97;;
55312;SDS011;46892;45.668;11.756;2022-11-24T03:50:59;6.03;;;3.20;;
55312;SDS011;46892;45.668;11.756;2022-11-24T03:53:27;5.27;;;2.93;;
55312;SDS011;46892;45.668;11.756;2022-11-24T03:55:54;7.03;;;3.43;;
55312;SDS011;46892;45.668;11.756;2022-11-24T03:58:20;6.00;;;3.73;;
55312;SDS011;46892;45.668;11.756;2022-11-24T04:00:49;4.13;;;2.97;;
55312;SDS011;46892;45.668;11.756;2022-11-24T04:03:16;4.35;;;3.00;;
55312;SDS011;46892;45.668;11.756;2022-11-24T04:05:43;6.13;;;3.30;;
55312;SDS011;46892;45.668;11.756;2022-11-24T04:08:09;8.17;;;4.00;;
55312;SDS011;46892;45.668;11.756;2022-11-24T04:10:35;6.40;;;3.63;;
55312;SDS011;46892;45.668;11.756;2022-11-24T04:13:12;7.80;;;3.83;;
55312;SDS011;46892;45.668;11.756;2022-11-24T04:15:39;6.47;;;3.73;;
55312;SDS011;46892;45.668;11.756;2022-11-24T04:18:06;7.77;;;3.93;;
55312;SDS011;46892;45.668;11.756;2022-11-24T04:20:32;8.47;;;4.40;;
55312;SDS011;46892;45.668;11.756;2022-11-24T04:22:58;6.03;;;3.77;;
55312;SDS011;46892;45.668;11.756;2022-11-24T04:25:24;6.43;;;3.90;;
55312;SDS011;46892;45.668;11.756;2022-11-24T04:27:50;5.70;;;3.70;;
55312;SDS011;46892;45.668;11.756;2022-11-24T04:30:17;6.57;;;3.80;;
55312;SDS011;46892;45.668;11.756;2022-11-24T04:32:43;6.20;;;3.53;;
55312;SDS011;46892;45.668;11.756;2022-11-24T04:35:09;5.60;;;3.67;;
55312;SDS011;46892;45.668;11.756;2022-11-24T04:37:35;7.23;;;4.17;;
55312;SDS011;46892;45.668;11.756;2022-11-24T04:40:01;6.63;;;3.90;;
55312;SDS011;46892;45.668;11.756;2022-11-24T04:42:27;7.73;;;4.33;;
55312;SDS011;46892;45.668;11.756;2022-11-24T04:44:53;6.27;;;4.07;;
55312;SDS011;46892;45.668;11.756;2022-11-24T04:47:20;8.13;;;4.70;;
55312;SDS011;46892;45.668;11.756;2022-11-24T04:49:47;6.57;;;4.00;;
55312;SDS011;46892;45.668;11.756;2022-11-24T04:52:13;6.03;;;3.90;;
55312;SDS011;46892;45.668;11.756;2022-11-24T04:54:39;6.63;;;4.00;;
55312;SDS011;46892;45.668;11.756;2022-11-24T04:57:05;6.23;;;4.00;;
55312;SDS011;46892;45.668;11.756;2022-11-24T04:59:31;6.20;;;3.60;;
55312;SDS011;46892;45.668;11.756;2022-11-24T05:01:56;7.00;;;4.13;;
55312;SDS011;46892;45.668;11.756;2022-11-24T05:04:22;6.87;;;4.23;;
55312;SDS011;46892;45.668;11.756;2022-11-24T05:06:48;6.73;;;4.30;;
55312;SDS011;46892;45.668;11.756;2022-11-24T05:09:14;6.53;;;4.27;;
55312;SDS011;46892;45.668;11.756;2022-11-24T05:11:40;7.47;;;4.33;;
55312;SDS011;46892;45.668;11.756;2022-11-24T05:14:06;7.13;;;4.00;;
55312;SDS011;46892;45.668;11.756;2022-11-24T05:16:32;8.57;;;4.03;;
55312;SDS011;46892;45.668;11.756;2022-11-24T05:18:58;5.77;;;3.80;;
55312;SDS011;46892;45.668;11.756;2022-11-24T05:21:23;6.27;;;3.70;;
55312;SDS011;46892;45.668;11.756;2022-11-24T05:23:49;5.23;;;3.77;;
55312;SDS011;46892;45.668;11.756;2022-11-24T05:26:15;7.40;;;3.87;;
55312;SDS011;46892;45.668;11.756;2022-11-24T05:28:40;6.77;;;3.73;;
55312;SDS011;46892;45.668;11.756;2022-11-24T05:31:06;7.87;;;4.20;;
55312;SDS011;46892;45.668;11.756;2022-11-24T05:33:32;7.20;;;4.43;;
55312;SDS011;46892;45.668;11.756;2022-11-24T05:35:59;10.60;;;4.80;;
55312;SDS011;46892;45.668;11.756;2022-11-24T05:38:26;10.40;;;4.70;;
55312;SDS011;46892;45.668;11.756;2022-11-24T05:40:54;8.73;;;3.97;;
55312;SDS011;46892;45.668;11.756;2022-11-24T05:43:24;11.00;;;4.50;;
55312;SDS011;46892;45.668;11.756;2022-11-24T05:45:49;11.03;;;5.27;;
55312;SDS011;46892;45.668;11.756;2022-11-24T05:48:15;10.10;;;6.33;;
55312;SDS011;46892;45.668;11.756;2022-11-24T05:50:41;9.90;;;5.63;;
55312;SDS011;46892;45.668;11.756;2022-11-24T05:53:07;7.00;;;4.70;;
55312;SDS011;46892;45.668;11.756;2022-11-24T05:55:35;9.30;;;5.23;;
55312;SDS011;46892;45.668;11.756;2022-11-24T05:58:02;13.33;;;6.83;;
55312;SDS011;46892;45.668;11.756;2022-11-24T06:00:29;51.23;;;31.73;;
55312;SDS011;46892;45.668;11.756;2022-11-24T06:02:56;84.23;;;41.07;;
55312;SDS011;46892;45.668;11.756;2022-11-24T06:05:23;38.33;;;21.03;;
55312;SDS011;46892;45.668;11.756;2022-11-24T06:07:49;9.47;;;5.50;;
55312;SDS011;46892;45.668;11.756;2022-11-24T06:10:16;8.27;;;5.40;;
55312;SDS011;46892;45.668;11.756;2022-11-24T06:12:43;11.20;;;5.00;;
55312;SDS011;46892;45.668;11.756;2022-11-24T06:15:08;13.27;;;8.00;;
55312;SDS011;46892;45.668;11.756;2022-11-24T06:17:35;56.90;;;32.83;;
55312;SDS011;46892;45.668;11.756;2022-11-24T06:20:02;27.63;;;15.97;;
55312;SDS011;46892;45.668;11.756;2022-11-24T06:22:28;13.27;;;6.97;;
55312;SDS011;46892;45.668;11.756;2022-11-24T06:24:54;10.97;;;6.47;;
55312;SDS011;46892;45.668;11.756;2022-11-24T06:27:20;10.90;;;6.47;;
55312;SDS011;46892;45.668;11.756;2022-11-24T06:29:46;20.77;;;7.83;;
55312;SDS011;46892;45.668;11.756;2022-11-24T06:32:11;12.63;;;6.90;;
55312;SDS011;46892;45.668;11.756;2022-11-24T06:34:37;12.40;;;6.97;;
55312;SDS011;46892;45.668;11.756;2022-11-24T06:37:03;13.17;;;7.20;;
55312;SDS011;46892;45.668;11.756;2022-11-24T06:39:29;18.77;;;9.43;;
55312;SDS011;46892;45.668;11.756;2022-11-24T06:41:55;18.03;;;8.47;;
55312;SDS011;46892;45.668;11.756;2022-11-24T06:44:20;19.33;;;8.80;;
55312;SDS011;46892;45.668;11.756;2022-11-24T06:46:46;22.47;;;10.23;;
55312;SDS011;46892;45.668;11.756;2022-11-24T06:49:12;20.70;;;8.60;;
55312;SDS011;46892;45.668;11.756;2022-11-24T06:51:38;15.20;;;7.47;;
55312;SDS011;46892;45.668;11.756;2022-11-24T06:54:12;20.47;;;8.87;;
55312;SDS011;46892;45.668;11.756;2022-11-24T06:56:39;25.53;;;11.53;;
55312;SDS011;46892;45.668;11.756;2022-11-24T06:59:05;11.60;;;6.40;;
55312;SDS011;46892;45.668;11.756;2022-11-24T07:01:30;10.27;;;5.20;;
55312;SDS011;46892;45.668;11.756;2022-11-24T07:03:57;10.07;;;5.40;;
55312;SDS011;46892;45.668;11.756;2022-11-24T07:06:23;9.20;;;4.60;;
55312;SDS011;46892;45.668;11.756;2022-11-24T07:08:50;8.07;;;5.10;;
55312;SDS011;46892;45.668;11.756;2022-11-24T07:11:18;10.07;;;4.63;;
55312;SDS011;46892;45.668;11.756;2022-11-24T07:13:45;10.47;;;5.57;;
55312;SDS011;46892;45.668;11.756;2022-11-24T07:18:43;8.27;;;5.00;;
55312;SDS011;46892;45.668;11.756;2022-11-24T07:21:10;9.60;;;5.00;;
55312;SDS011;46892;45.668;11.756;2022-11-24T07:23:36;11.17;;;5.60;;
55312;SDS011;46892;45.668;11.756;2022-11-24T07:26:05;14.87;;;6.67;;
55312;SDS011;46892;45.668;11.756;2022-11-24T07:28:32;11.90;;;7.20;;
55312;SDS011;46892;45.668;11.756;2022-11-24T07:30:58;13.97;;;6.90;;
55312;SDS011;46892;45.668;11.756;2022-11-24T07:33:28;11.80;;;6.25;;
55312;SDS011;46892;45.668;11.756;2022-11-24T07:35:54;11.17;;;6.07;;
55312;SDS011;46892;45.668;11.756;2022-11-24T07:38:23;11.80;;;6.30;;
55312;SDS011;46892;45.668;11.756;2022-11-24T07:40:49;12.17;;;6.67;;
55312;SDS011;46892;45.668;11.756;2022-11-24T07:43:15;11.67;;;6.17;;
55312;SDS011;46892;45.668;11.756;2022-11-24T07:45:40;16.13;;;6.43;;
55312;SDS011;46892;45.668;11.756;2022-11-24T07:48:06;12.87;;;6.40;;
55312;SDS011;46892;45.668;11.756;2022-11-24T07:50:32;12.40;;;7.30;;
55312;SDS011;46892;45.668;11.756;2022-11-24T07:53:01;14.57;;;8.07;;
55312;SDS011;46892;45.668;11.756;2022-11-24T07:55:28;10.90;;;6.25;;
55312;SDS011;46892;45.668;11.756;2022-11-24T07:57:57;8.00;;;4.40;;
55312;SDS011;46892;45.668;11.756;2022-11-24T08:00:23;6.70;;;4.40;;
55312;SDS011;46892;45.668;11.756;2022-11-24T08:02:49;11.00;;;5.10;;
55312;SDS011;46892;45.668;11.756;2022-11-24T08:05:15;7.80;;;4.20;;
55312;SDS011;46892;45.668;11.756;2022-11-24T08:07:40;9.10;;;4.53;;
55312;SDS011;46892;45.668;11.756;2022-11-24T08:10:06;6.77;;;4.57;;
55312;SDS011;46892;45.668;11.756;2022-11-24T08:12:32;7.43;;;4.23;;
55312;SDS011;46892;45.668;11.756;2022-11-24T08:14:58;7.73;;;4.77;;
55312;SDS011;46892;45.668;11.756;2022-11-24T08:17:23;7.40;;;4.33;;
55312;SDS011;46892;45.668;11.756;2022-11-24T08:19:49;15.93;;;6.03;;
55312;SDS011;46892;45.668;11.756;2022-11-24T08:22:15;14.03;;;7.07;;
55312;SDS011;46892;45.668;11.756;2022-11-24T08:24:40;12.33;;;7.37;;
55312;SDS011;46892;45.668;11.756;2022-11-24T08:27:11;13.15;;;6.88;;
55312;SDS011;46892;45.668;11.756;2022-11-24T08:29:38;12.13;;;6.20;;
55312;SDS011;46892;45.668;11.756;2022-11-24T08:32:03;10.87;;;6.37;;
55312;SDS011;46892;45.668;11.756;2022-11-24T08:34:29;9.70;;;6.90;;
55312;SDS011;46892;45.668;11.756;2022-11-24T08:36:55;12.93;;;7.17;;
55312;SDS011;46892;45.668;11.756;2022-11-24T08:39:20;11.77;;;6.93;;
55312;SDS011;46892;45.668;11.756;2022-11-24T08:41:46;10.40;;;6.90;;
55312;SDS011;46892;45.668;11.756;2022-11-24T08:44:12;11.57;;;6.93;;
55312;SDS011;46892;45.668;11.756;2022-11-24T08:46:40;11.27;;;6.40;;
55312;SDS011;46892;45.668;11.756;2022-11-24T08:49:06;12.73;;;6.67;;
55312;SDS011;46892;45.668;11.756;2022-11-24T08:51:32;10.20;;;6.27;;
55312;SDS011;46892;45.668;11.756;2022-11-24T08:53:58;12.17;;;6.37;;
55312;SDS011;46892;45.668;11.756;2022-11-24T08:56:26;9.57;;;7.00;;
55312;SDS011;46892;45.668;11.756;2022-11-24T08:58:53;11.00;;;6.83;;
55312;SDS011;46892;45.668;11.756;2022-11-24T09:01:21;13.10;;;8.47;;
55312;SDS011;46892;45.668;11.756;2022-11-24T09:03:48;11.07;;;7.47;;
55312;SDS011;46892;45.668;11.756;2022-11-24T09:06:14;22.07;;;7.17;;
55312;SDS011;46892;45.668;11.756;2022-11-24T09:08:41;8.50;;;5.70;;
55312;SDS011;46892;45.668;11.756;2022-11-24T09:11:08;10.47;;;5.30;;
55312;SDS011;46892;45.668;11.756;2022-11-24T09:13:35;8.80;;;5.43;;
55312;SDS011;46892;45.668;11.756;2022-11-24T09:16:04;10.53;;;6.07;;
55312;SDS011;46892;45.668;11.756;2022-11-24T09:18:36;10.20;;;6.47;;
55312;SDS011;46892;45.668;11.756;2022-11-24T09:21:08;8.97;;;5.87;;
55312;SDS011;46892;45.668;11.756;2022-11-24T09:23:44;8.53;;;6.17;;
55312;SDS011;46892;45.668;11.756;2022-11-24T09:26:20;10.60;;;6.90;;
55312;SDS011;46892;45.668;11.756;2022-11-24T09:28:51;10.50;;;6.67;;
55312;SDS011;46892;45.668;11.756;2022-11-24T09:31:19;10.37;;;6.90;;
55312;SDS011;46892;45.668;11.756;2022-11-24T09:33:46;12.03;;;6.93;;
55312;SDS011;46892;45.668;11.756;2022-11-24T09:36:12;10.47;;;6.87;;
55312;SDS011;46892;45.668;11.756;2022-11-24T09:38:38;9.20;;;6.03;;
55312;SDS011;46892;45.668;11.756;2022-11-24T09:41:18;9.43;;;6.87;;
55312;SDS011;46892;45.668;11.756;2022-11-24T09:43:54;10.70;;;6.63;;
55312;SDS011;46892;45.668;11.756;2022-11-24T09:49:18;8.60;;;5.67;;
55312;SDS011;46892;45.668;11.756;2022-11-24T09:51:51;8.50;;;5.50;;
55312;SDS011;46892;45.668;11.756;2022-11-24T09:54:25;9.80;;;5.83;;
55312;SDS011;46892;45.668;11.756;2022-11-24T09:56:54;7.50;;;5.10;;
55312;SDS011;46892;45.668;11.756;2022-11-24T10:01:51;8.10;;;4.80;;
55312;SDS011;46892;45.668;11.756;2022-11-24T10:04:18;9.13;;;5.57;;
55312;SDS011;46892;45.668;11.756;2022-11-24T10:07:21;12.73;;;6.70;;
55312;SDS011;46892;45.668;11.756;2022-11-24T10:09:57;9.68;;;5.75;;
55312;SDS011;46892;45.668;11.756;2022-11-24T10:15:32;9.77;;;5.80;;
55312;SDS011;46892;45.668;11.756;2022-11-24T10:26:36;8.20;;;5.53;;
55312;SDS011;46892;45.668;11.756;2022-11-24T10:29:19;8.47;;;5.87;;
55312;SDS011;46892;45.668;11.756;2022-11-24T10:31:58;9.63;;;6.13;;
55312;SDS011;46892;45.668;11.756;2022-11-24T10:34:31;10.10;;;5.45;;
55312;SDS011;46892;45.668;11.756;2022-11-24T10:37:15;9.50;;;5.70;;
55312;SDS011;46892;45.668;11.756;2022-11-24T10:39:59;7.63;;;5.43;;
55312;SDS011;46892;45.668;11.756;2022-11-24T10:42:34;7.70;;;5.40;;
55312;SDS011;46892;45.668;11.756;2022-11-24T10:45:14;7.85;;;5.18;;
55312;SDS011;46892;45.668;11.756;2022-11-24T10:47:42;8.17;;;5.17;;
55312;SDS011;46892;45.668;11.756;2022-11-24T10:50:24;7.00;;;4.90;;
55312;SDS011;46892;45.668;11.756;2022-11-24T10:53:02;8.20;;;5.27;;
55312;SDS011;46892;45.668;11.756;2022-11-24T10:58:27;9.55;;;5.38;;
55312;SDS011;46892;45.668;11.756;2022-11-24T11:00:57;9.07;;;4.33;;
55312;SDS011;46892;45.668;11.756;2022-11-24T11:03:52;10.07;;;5.60;;
55312;SDS011;46892;45.668;11.756;2022-11-24T11:08:47;9.00;;;5.37;;
55312;SDS011;46892;45.668;11.756;2022-11-24T11:11:34;8.27;;;4.83;;
55312;SDS011;46892;45.668;11.756;2022-11-24T11:16:40;8.48;;;5.22;;
55312;SDS011;46892;45.668;11.756;2022-11-24T11:19:30;8.07;;;5.50;;
55312;SDS011;46892;45.668;11.756;2022-11-24T11:22:03;8.30;;;5.77;;
55312;SDS011;46892;45.668;11.756;2022-11-24T11:24:40;9.13;;;6.27;;
55312;SDS011;46892;45.668;11.756;2022-11-24T11:27:21;8.03;;;5.57;;
55312;SDS011;46892;45.668;11.756;2022-11-24T11:34:51;7.20;;;5.07;;
55312;SDS011;46892;45.668;11.756;2022-11-24T11:37:22;8.75;;;5.68;;
55312;SDS011;46892;45.668;11.756;2022-11-24T11:47:42;11.77;;;7.17;;
55312;SDS011;46892;45.668;11.756;2022-11-24T11:58:43;10.27;;;7.57;;
55312;SDS011;46892;45.668;11.756;2022-11-24T12:04:15;12.07;;;7.13;;
55312;SDS011;46892;45.668;11.756;2022-11-24T12:07:30;11.63;;;7.97;;
55312;SDS011;46892;45.668;11.756;2022-11-24T12:15:48;10.73;;;7.53;;
55312;SDS011;46892;45.668;11.756;2022-11-24T12:37:22;10.07;;;7.13;;
55312;SDS011;46892;45.668;11.756;2022-11-24T12:51:32;11.73;;;7.83;;
55312;SDS011;46892;45.668;11.756;2022-11-24T12:56:36;10.20;;;7.20;;
55312;SDS011;46892;45.668;11.756;2022-11-24T12:59:28;11.80;;;7.97;;
55312;SDS011;46892;45.668;11.756;2022-11-24T13:02:03;10.13;;;7.80;;
55312;SDS011;46892;45.668;11.756;2022-11-24T13:04:55;11.90;;;8.80;;
55312;SDS011;46892;45.668;11.756;2022-11-24T13:07:47;12.90;;;8.57;;
55312;SDS011;46892;45.668;11.756;2022-11-24T13:13:05;11.27;;;8.20;;
55312;SDS011;46892;45.668;11.756;2022-11-24T13:26:44;10.67;;;7.87;;
55312;SDS011;46892;45.668;11.756;2022-11-24T13:42:17;9.93;;;7.63;;
55312;SDS011;46892;45.668;11.756;2022-11-24T13:44:54;9.73;;;7.50;;
55312;SDS011;46892;45.668;11.756;2022-11-24T13:47:33;9.50;;;6.97;;
55312;SDS011;46892;45.668;11.756;2022-11-24T13:50:06;12.60;;;7.77;;
55312;SDS011;46892;45.668;11.756;2022-11-24T13:52:45;11.27;;;7.23;;
55312;SDS011;46892;45.668;11.756;2022-11-24T13:55:20;9.70;;;7.40;;
55312;SDS011;46892;45.668;11.756;2022-11-24T13:57:56;9.57;;;7.00;;
55312;SDS011;46892;45.668;11.756;2022-11-24T14:00:35;12.23;;;8.23;;
55312;SDS011;46892;45.668;11.756;2022-11-24T14:03:40;13.57;;;8.17;;
55312;SDS011;46892;45.668;11.756;2022-11-24T14:06:16;11.60;;;7.97;;
55312;SDS011;46892;45.668;11.756;2022-11-24T14:12:33;10.60;;;8.20;;
55312;SDS011;46892;45.668;11.756;2022-11-24T14:14:40;13.50;;;9.07;;
55312;SDS011;46892;45.668;11.756;2022-11-24T14:19:43;14.87;;;8.83;;
55312;SDS011;46892;45.668;11.756;2022-11-24T14:22:22;13.43;;;9.75;;
55312;SDS011;46892;45.668;11.756;2022-11-24T14:25:04;15.53;;;9.90;;
55312;SDS011;46892;45.668;11.756;2022-11-24T14:27:33;14.17;;;9.17;;
55312;SDS011;46892;45.668;11.756;2022-11-24T14:30:02;13.37;;;9.87;;
55312;SDS011;46892;45.668;11.756;2022-11-24T14:32:31;15.80;;;10.23;;
55312;SDS011;46892;45.668;11.756;2022-11-24T14:34:57;11.80;;;9.03;;
55312;SDS011;46892;45.668;11.756;2022-11-24T14:37:23;14.17;;;9.33;;
55312;SDS011;46892;45.668;11.756;2022-11-24T14:39:49;14.07;;;9.90;;
55312;SDS011;46892;45.668;11.756;2022-11-24T14:42:15;14.53;;;9.43;;
55312;SDS011;46892;45.668;11.756;2022-11-24T14:44:55;12.27;;;8.53;;
55312;SDS011;46892;45.668;11.756;2022-11-24T14:47:27;13.80;;;9.10;;
55312;SDS011;46892;45.668;11.756;2022-11-24T14:49:57;12.63;;;8.63;;
55312;SDS011;46892;45.668;11.756;2022-11-24T14:52:32;12.20;;;9.10;;
55312;SDS011;46892;45.668;11.756;2022-11-24T14:54:59;13.13;;;9.53;;
55312;SDS011;46892;45.668;11.756;2022-11-24T14:57:31;18.07;;;10.17;;
55312;SDS011;46892;45.668;11.756;2022-11-24T15:05:07;15.47;;;10.23;;
55312;SDS011;46892;45.668;11.756;2022-11-24T15:07:33;15.17;;;10.20;;
55312;SDS011;46892;45.668;11.756;2022-11-24T15:10:03;13.57;;;9.80;;
55312;SDS011;46892;45.668;11.756;2022-11-24T15:12:32;12.50;;;9.60;;
55312;SDS011;46892;45.668;11.756;2022-11-24T15:17:44;12.03;;;9.23;;
55312;SDS011;46892;45.668;11.756;2022-11-24T15:25:57;15.63;;;11.00;;
55312;SDS011;46892;45.668;11.756;2022-11-24T15:28:44;14.50;;;10.80;;
55312;SDS011;46892;45.668;11.756;2022-11-24T15:31:11;15.57;;;10.93;;
55312;SDS011;46892;45.668;11.756;2022-11-24T15:33:38;14.73;;;10.57;;
55312;SDS011;46892;45.668;11.756;2022-11-24T15:36:05;14.07;;;10.53;;
55312;SDS011;46892;45.668;11.756;2022-11-24T15:38:31;17.73;;;11.77;;
55312;SDS011;46892;45.668;11.756;2022-11-24T15:40:57;13.57;;;10.27;;
55312;SDS011;46892;45.668;11.756;2022-11-24T15:45:56;13.07;;;9.63;;
55312;SDS011;46892;45.668;11.756;2022-11-24T15:48:23;16.57;;;10.77;;
55312;SDS011;46892;45.668;11.756;2022-11-24T15:50:49;15.67;;;11.60;;
55312;SDS011;46892;45.668;11.756;2022-11-24T15:53:19;16.07;;;11.83;;
55312;SDS011;46892;45.668;11.756;2022-11-24T15:55:52;17.17;;;12.37;;
55312;SDS011;46892;45.668;11.756;2022-11-24T15:58:20;15.37;;;11.10;;
55312;SDS011;46892;45.668;11.756;2022-11-24T16:00:45;15.20;;;12.23;;
55312;SDS011;46892;45.668;11.756;2022-11-24T16:03:11;16.37;;;12.23;;
55312;SDS011;46892;45.668;11.756;2022-11-24T16:05:37;18.67;;;13.30;;
55312;SDS011;46892;45.668;11.756;2022-11-24T16:08:13;18.80;;;14.07;;
55312;SDS011;46892;45.668;11.756;2022-11-24T16:10:40;18.53;;;13.20;;
55312;SDS011;46892;45.668;11.756;2022-11-24T16:13:07;14.57;;;10.37;;
55312;SDS011;46892;45.668;11.756;2022-11-24T16:15:33;15.00;;;10.23;;
55312;SDS011;46892;45.668;11.756;2022-11-24T16:17:58;12.83;;;9.53;;
55312;SDS011;46892;45.668;11.756;2022-11-24T16:20:24;15.37;;;10.60;;
55312;SDS011;46892;45.668;11.756;2022-11-24T16:22:50;19.13;;;12.37;;
55312;SDS011;46892;45.668;11.756;2022-11-24T16:25:16;20.67;;;13.20;;
55312;SDS011;46892;45.668;11.756;2022-11-24T16:27:41;20.70;;;14.40;;
55312;SDS011;46892;45.668;11.756;2022-11-24T16:30:08;21.20;;;14.87;;
55312;SDS011;46892;45.668;11.756;2022-11-24T16:32:36;20.83;;;15.67;;
55312;SDS011;46892;45.668;11.756;2022-11-24T16:35:02;21.57;;;13.63;;
55312;SDS011;46892;45.668;11.756;2022-11-24T16:37:28;23.37;;;16.33;;
55312;SDS011;46892;45.668;11.756;2022-11-24T16:39:53;23.77;;;16.80;;
55312;SDS011;46892;45.668;11.756;2022-11-24T16:42:19;26.00;;;16.63;;
55312;SDS011;46892;45.668;11.756;2022-11-24T16:44:45;24.60;;;16.20;;
55312;SDS011;46892;45.668;11.756;2022-11-24T16:47:10;24.33;;;16.00;;
55312;SDS011;46892;45.668;11.756;2022-11-24T16:49:37;34.33;;;19.30;;
55312;SDS011;46892;45.668;11.756;2022-11-24T16:52:03;34.80;;;23.30;;
55312;SDS011;46892;45.668;11.756;2022-11-24T16:54:29;39.20;;;27.17;;
55312;SDS011;46892;45.668;11.756;2022-11-24T16:56:55;29.73;;;20.60;;
55312;SDS011;46892;45.668;11.756;2022-11-24T16:59:21;34.67;;;23.90;;
55312;SDS011;46892;45.668;11.756;2022-11-24T17:01:46;44.83;;;26.03;;
55312;SDS011;46892;45.668;11.756;2022-11-24T17:04:14;42.93;;;25.73;;
55312;SDS011;46892;45.668;11.756;2022-11-24T17:06:40;41.47;;;27.17;;
55312;SDS011;46892;45.668;11.756;2022-11-24T17:09:06;39.83;;;25.57;;
55312;SDS011;46892;45.668;11.756;2022-11-24T17:11:33;38.23;;;22.70;;